Time;durP1;ratioP1;P1;durP2;ratioP2;P2;SDS_P1;SDS_P2;PMS_P1;PMS_P2;Temp;Humidity;BMP_temperature;BMP_pressure;BME280_temperature;BME280_humidity;BME280_pressure;Samples;Min_cycle;Max_cycle;Signal;HPM_P1;HPM_P2
2021/03/31 00:02:09;;;;;;;18.13;9.50;;;6.70;69.40;;;;;;5021538;28;20195;-71
2021/03/31 00:04:35;;;;;;;16.53;9.47;;;6.70;69.60;;;;;;5019017;28;20265;-72
2021/03/31 00:07:03;;;;;;;16.27;8.63;;;6.70;69.70;;;;;;5019437;28;20180;-70
2021/03/31 00:09:28;;;;;;;12.30;8.50;;;6.60;69.90;;;;;;5013965;28;20179;-72
2021/03/31 00:11:54;;;;;;;14.37;8.13;;;6.60;69.70;;;;;;5023780;28;20177;-72
2021/03/31 00:14:20;;;;;;;16.03;9.57;;;6.70;69.80;;;;;;5023933;28;20303;-71
2021/03/31 00:16:45;;;;;;;17.87;9.50;;;6.70;69.80;;;;;;5020641;28;20185;-70
2021/03/31 00:19:11;;;;;;;14.77;8.97;;;6.70;69.90;;;;;;5024098;28;20617;-71
2021/03/31 00:21:37;;;;;;;18.23;9.70;;;6.70;69.60;;;;;;5021431;28;20187;-72
2021/03/31 00:24:03;;;;;;;19.57;9.33;;;6.70;69.70;;;;;;5013456;28;20219;-70
2021/03/31 00:26:29;;;;;;;16.50;9.07;;;6.70;69.70;;;;;;5024741;28;20220;-69
2021/03/31 00:28:55;;;;;;;14.70;8.10;;;6.70;69.70;;;;;;5021838;28;21042;-69
2021/03/31 00:31:20;;;;;;;15.37;7.63;;;6.70;69.50;;;;;;5021907;28;20573;-70
2021/03/31 00:33:46;;;;;;;16.77;8.43;;;6.70;69.70;;;;;;5023092;28;20212;-69
2021/03/31 00:36:11;;;;;;;17.63;7.20;;;6.70;69.90;;;;;;5028605;28;20250;-70
2021/03/31 00:38:37;;;;;;;11.83;6.30;;;6.70;69.70;;;;;;5025545;28;20287;-70
2021/03/31 00:41:05;;;;;;;8.60;7.03;;;6.60;69.60;;;;;;5023574;28;20185;-69
2021/03/31 00:43:31;;;;;;;13.30;7.27;;;6.60;69.70;;;;;;5028334;28;20226;-70
2021/03/31 00:45:57;;;;;;;10.00;6.47;;;6.50;69.80;;;;;;5026808;28;20177;-70
2021/03/31 00:48:23;;;;;;;15.63;7.40;;;6.50;69.80;;;;;;5026727;28;20192;-70
2021/03/31 00:50:54;;;;;;;15.03;8.50;;;6.40;70.10;;;;;;5028242;28;20184;-70
2021/03/31 00:53:26;;;;;;;10.10;7.37;;;6.40;70.60;;;;;;5027086;28;20719;-70
2021/03/31 00:55:52;;;;;;;15.23;8.53;;;6.30;70.80;;;;;;5026458;28;20283;-70
2021/03/31 00:58:18;;;;;;;13.67;8.47;;;6.30;71.10;;;;;;5028454;28;20294;-70
2021/03/31 01:00:45;;;;;;;14.50;8.10;;;6.20;71.30;;;;;;5026970;28;20718;-70
2021/03/31 01:03:11;;;;;;;14.30;8.20;;;6.20;71.30;;;;;;5024161;28;20188;-69
2021/03/31 01:05:37;;;;;;;15.33;8.20;;;6.10;71.70;;;;;;5025929;28;20739;-69
2021/03/31 01:08:03;;;;;;;15.77;8.17;;;6.10;71.70;;;;;;5022314;28;20184;-70
2021/03/31 01:10:36;;;;;;;14.80;8.93;;;6.10;71.90;;;;;;5021843;28;20741;-69
2021/03/31 01:13:32;;;;;;;17.60;9.13;;;6.10;72.00;;;;;;5026500;28;20606;-70
2021/03/31 01:16:30;;;;;;;14.47;8.90;;;6.00;72.40;;;;;;5018082;28;20180;-70
2021/03/31 01:19:02;;;;;;;13.03;7.97;;;6.00;72.60;;;;;;5024461;28;20177;-70
2021/03/31 01:21:49;;;;;;;14.50;8.57;;;6.00;72.60;;;;;;5037373;28;20694;-70
2021/03/31 01:24:40;;;;;;;17.17;8.63;;;5.90;72.70;;;;;;5014138;28;20184;-70
2021/03/31 01:27:39;;;;;;;23.93;8.87;;;5.90;72.80;;;;;;5022917;28;20599;-70
2021/03/31 01:30:13;;;;;;;13.87;9.07;;;5.90;72.60;;;;;;4995040;28;20208;-70
2021/03/31 01:33:07;;;;;;;13.87;7.73;;;5.80;72.70;;;;;;5012788;28;21060;-69
2021/03/31 01:35:33;;;;;;;11.23;8.20;;;5.80;72.80;;;;;;4936115;29;20738;-70
2021/03/31 01:38:04;;;;;;;11.43;8.60;;;5.80;73.10;;;;;;4955677;28;20196;-70
2021/03/31 01:40:34;;;;;;;12.67;8.60;;;5.70;72.90;;;;;;4950517;28;20207;-70
2021/03/31 01:43:14;;;;;;;17.20;8.57;;;5.70;73.50;;;;;;4948919;28;20234;-70
2021/03/31 01:45:40;;;;;;;11.70;8.40;;;5.70;73.50;;;;;;4948728;28;20254;-69
2021/03/31 01:48:16;;;;;;;11.37;7.87;;;5.60;74.10;;;;;;4948270;28;20991;-70
2021/03/31 01:50:44;;;;;;;12.33;6.93;;;5.60;73.80;;;;;;4946781;29;20187;-70
2021/03/31 01:53:12;;;;;;;8.57;6.80;;;5.50;73.70;;;;;;4950759;28;20302;-71
2021/03/31 01:55:39;;;;;;;13.00;7.00;;;5.50;73.80;;;;;;4947603;28;20567;-70
2021/03/31 01:58:06;;;;;;;10.93;6.60;;;5.40;73.70;;;;;;4931405;28;20202;-70
2021/03/31 02:00:33;;;;;;;11.80;6.87;;;5.40;73.80;;;;;;4956649;28;20190;-69
2021/03/31 02:03:00;;;;;;;11.83;6.90;;;5.40;73.70;;;;;;4946639;29;20320;-70
2021/03/31 02:05:27;;;;;;;9.77;6.33;;;5.30;74.10;;;;;;4947820;28;20199;-70
2021/03/31 02:07:53;;;;;;;9.03;6.37;;;5.30;74.40;;;;;;4942486;29;20206;-70
2021/03/31 02:10:22;;;;;;;13.03;7.10;;;5.30;74.40;;;;;;4946418;29;20286;-69
2021/03/31 02:12:50;;;;;;;7.33;5.83;;;5.20;74.40;;;;;;4994931;28;20221;-70
2021/03/31 02:15:21;;;;;;;14.33;6.40;;;5.20;74.50;;;;;;5024113;28;20177;-69
2021/03/31 02:17:49;;;;;;;10.53;6.23;;;5.10;74.40;;;;;;5021587;28;20176;-70
2021/03/31 02:20:19;;;;;;;10.10;6.80;;;5.10;74.60;;;;;;5018197;28;20299;-70
2021/03/31 02:22:46;;;;;;;8.93;6.97;;;5.10;74.60;;;;;;5025437;28;20281;-69
2021/03/31 02:25:13;;;;;;;14.63;7.13;;;5.10;74.70;;;;;;5023184;28;20196;-70
2021/03/31 02:27:39;;;;;;;13.20;7.57;;;5.00;75.10;;;;;;5020946;28;20578;-70
2021/03/31 02:30:08;;;;;;;14.70;8.03;;;5.00;75.00;;;;;;5022623;28;20191;-69
2021/03/31 02:32:36;;;;;;;15.20;7.23;;;5.00;75.20;;;;;;5019915;28;20205;-71
2021/03/31 02:35:03;;;;;;;15.67;7.53;;;5.00;75.30;;;;;;5025114;28;20187;-69
2021/03/31 02:37:28;;;;;;;17.30;8.30;;;4.90;75.20;;;;;;5011788;28;20181;-69
2021/03/31 02:39:56;;;;;;;15.80;7.50;;;4.90;75.30;;;;;;5018797;28;20186;-69
2021/03/31 02:42:24;;;;;;;9.97;7.60;;;4.90;75.30;;;;;;5020960;28;20172;-69
2021/03/31 02:44:53;;;;;;;12.67;8.37;;;4.90;75.40;;;;;;5025171;28;20287;-70
2021/03/31 02:47:23;;;;;;;14.40;7.70;;;4.80;75.60;;;;;;5019920;28;20687;-69
2021/03/31 02:49:52;;;;;;;10.33;7.37;;;4.80;75.40;;;;;;5025616;28;20180;-69
2021/03/31 02:52:21;;;;;;;12.97;7.40;;;4.80;75.60;;;;;;5009653;28;20250;-69
2021/03/31 02:54:48;;;;;;;14.53;8.67;;;4.80;75.60;;;;;;5021962;28;20675;-70
2021/03/31 02:57:14;;;;;;;11.97;7.33;;;4.70;75.50;;;;;;5025024;28;20189;-70
2021/03/31 02:59:41;;;;;;;14.47;7.77;;;4.70;75.80;;;;;;5022841;28;20196;-70
2021/03/31 03:02:08;;;;;;;19.27;8.37;;;4.70;75.70;;;;;;5023592;28;20690;-70
2021/03/31 03:04:34;;;;;;;10.00;7.50;;;4.70;76.20;;;;;;5012135;28;20304;-70
2021/03/31 03:07:01;;;;;;;13.13;7.50;;;4.70;76.80;;;;;;5021344;28;20188;-69
2021/03/31 03:09:27;;;;;;;10.43;6.87;;;4.70;77.50;;;;;;5024988;28;20342;-69
2021/03/31 03:11:53;;;;;;;13.43;7.93;;;4.70;77.80;;;;;;5024937;28;20184;-69
2021/03/31 03:14:20;;;;;;;12.00;7.37;;;4.60;77.70;;;;;;5025603;28;21020;-69
2021/03/31 03:16:46;;;;;;;9.93;7.57;;;4.60;77.70;;;;;;5024408;28;20188;-70
2021/03/31 03:19:13;;;;;;;12.07;7.60;;;4.60;78.10;;;;;;5026049;28;20246;-71
2021/03/31 03:21:39;;;;;;;12.03;7.33;;;4.50;77.60;;;;;;5023661;28;20824;-71
2021/03/31 03:24:12;;;;;;;17.80;7.80;;;4.50;78.10;;;;;;5013533;28;20235;-70
2021/03/31 03:26:39;;;;;;;14.40;8.27;;;4.50;78.20;;;;;;5019968;28;20180;-70
2021/03/31 03:29:07;;;;;;;18.53;8.67;;;4.50;78.30;;;;;;5023039;28;20196;-71
2021/03/31 03:31:34;;;;;;;14.33;8.40;;;4.50;78.60;;;;;;5025694;28;20266;-71
2021/03/31 03:34:01;;;;;;;15.37;7.67;;;4.40;78.30;;;;;;5025683;28;20265;-71
2021/03/31 03:36:27;;;;;;;14.47;7.77;;;4.40;78.40;;;;;;5024255;28;20271;-72
2021/03/31 03:38:53;;;;;;;13.57;7.67;;;4.40;78.30;;;;;;5009857;28;20189;-71
2021/03/31 03:41:19;;;;;;;11.47;7.67;;;4.40;78.30;;;;;;5021054;28;20184;-70
2021/03/31 03:43:45;;;;;;;11.37;7.07;;;4.40;78.60;;;;;;5014747;28;20684;-70
2021/03/31 03:46:12;;;;;;;14.10;7.40;;;4.40;78.70;;;;;;5020517;28;20330;-70
2021/03/31 03:48:39;;;;;;;7.00;6.40;;;4.40;78.50;;;;;;5023177;28;20684;-69
2021/03/31 03:51:09;;;;;;;12.57;6.70;;;4.30;79.00;;;;;;5016816;28;20783;-70
2021/03/31 03:53:35;;;;;;;11.60;6.60;;;4.30;78.50;;;;;;5015147;28;20277;-69
2021/03/31 03:56:08;;;;;;;11.67;7.20;;;4.30;79.00;;;;;;5022925;28;20180;-70
2021/03/31 03:58:33;;;;;;;15.90;7.90;;;4.20;78.90;;;;;;5017781;28;20227;-70
2021/03/31 04:00:59;;;;;;;10.30;7.33;;;4.20;79.20;;;;;;5022458;28;20260;-70
2021/03/31 04:03:25;;;;;;;13.53;6.70;;;4.20;79.20;;;;;;5020183;28;20188;-69
2021/03/31 04:05:50;;;;;;;10.50;7.23;;;4.20;79.40;;;;;;5020311;28;20188;-69
2021/03/31 04:08:16;;;;;;;11.43;7.03;;;4.20;79.30;;;;;;5025007;28;20192;-69
2021/03/31 04:10:46;;;;;;;13.37;7.40;;;4.20;79.40;;;;;;5023165;28;20222;-70
2021/03/31 04:13:12;;;;;;;9.40;7.20;;;4.20;79.30;;;;;;5024411;28;20237;-69
2021/03/31 04:15:39;;;;;;;8.43;6.37;;;4.20;79.10;;;;;;5025451;28;20612;-69
2021/03/31 04:18:07;;;;;;;13.73;6.57;;;4.20;79.00;;;;;;5022889;28;20290;-69
2021/03/31 04:20:32;;;;;;;9.80;6.43;;;4.20;79.00;;;;;;5039893;28;20680;-70
2021/03/31 04:22:58;;;;;;;13.43;7.27;;;4.10;79.30;;;;;;5024292;28;20218;-70
2021/03/31 04:25:26;;;;;;;9.17;5.37;;;4.10;79.20;;;;;;5023326;28;20192;-70
2021/03/31 04:27:54;;;;;;;9.67;5.90;;;4.10;79.10;;;;;;5017271;28;20195;-70
2021/03/31 04:30:22;;;;;;;8.50;6.13;;;4.10;79.10;;;;;;5020148;28;20183;-71
2021/03/31 04:32:50;;;;;;;9.30;6.00;;;4.10;79.20;;;;;;5020930;28;20695;-71
2021/03/31 04:35:18;;;;;;;9.97;6.70;;;4.10;79.60;;;;;;5014863;28;20611;-71
2021/03/31 04:37:44;;;;;;;12.83;6.83;;;4.10;79.40;;;;;;5021472;28;20191;-71
2021/03/31 04:40:12;;;;;;;11.40;6.90;;;4.10;79.70;;;;;;5014593;28;20184;-71
2021/03/31 04:42:39;;;;;;;10.63;7.20;;;4.10;80.10;;;;;;5021625;28;20924;-71
2021/03/31 04:45:07;;;;;;;12.53;7.93;;;4.10;80.10;;;;;;5022067;28;20610;-71
2021/03/31 04:47:33;;;;;;;7.83;6.10;;;4.10;80.20;;;;;;5017556;28;20271;-73
2021/03/31 04:49:59;;;;;;;8.93;6.13;;;4.10;80.20;;;;;;5021206;28;21098;-72
2021/03/31 04:52:25;;;;;;;14.10;6.80;;;4.00;80.30;;;;;;5015386;28;20192;-72
2021/03/31 04:54:51;;;;;;;11.90;6.80;;;3.90;80.10;;;;;;5017746;28;20672;-72
2021/03/31 04:57:17;;;;;;;12.23;6.57;;;4.00;80.10;;;;;;5011260;28;20254;-70
2021/03/31 04:59:43;;;;;;;15.43;8.00;;;4.00;80.50;;;;;;5019581;28;20672;-71
2021/03/31 05:02:08;;;;;;;17.90;7.67;;;4.00;79.90;;;;;;5022266;28;20180;-71
2021/03/31 05:04:34;;;;;;;8.93;6.60;;;4.00;80.20;;;;;;5023054;28;20192;-72
2021/03/31 05:07:00;;;;;;;11.27;6.97;;;4.10;79.90;;;;;;5023725;28;20246;-72
2021/03/31 05:09:25;;;;;;;8.90;7.17;;;4.10;80.00;;;;;;5022786;28;21020;-71
2021/03/31 05:11:51;;;;;;;11.17;6.97;;;4.10;80.20;;;;;;5019589;28;20193;-72
2021/03/31 05:14:17;;;;;;;9.93;6.37;;;4.20;79.60;;;;;;5021494;28;20290;-72
2021/03/31 05:16:42;;;;;;;15.90;7.13;;;4.20;80.20;;;;;;5021620;28;20192;-71
2021/03/31 05:19:08;;;;;;;10.63;7.17;;;4.20;79.90;;;;;;5022314;28;20188;-72
2021/03/31 05:21:34;;;;;;;11.27;7.90;;;4.30;79.70;;;;;;5024819;28;20208;-70
2021/03/31 05:23:59;;;;;;;8.93;7.13;;;4.40;79.70;;;;;;5027524;28;20196;-71
2021/03/31 05:26:25;;;;;;;14.80;7.10;;;4.40;79.70;;;;;;5028301;28;20192;-70
2021/03/31 05:28:51;;;;;;;14.17;8.27;;;4.50;79.80;;;;;;5026231;28;20257;-69
2021/03/31 05:31:16;;;;;;;9.13;7.60;;;4.60;80.10;;;;;;5023143;28;20197;-70
2021/03/31 05:33:42;;;;;;;11.90;7.43;;;4.70;80.20;;;;;;5017020;28;20293;-72
2021/03/31 05:36:09;;;;;;;19.27;7.90;;;4.70;79.70;;;;;;5026870;28;20189;-72
2021/03/31 05:38:34;;;;;;;14.33;7.80;;;4.80;79.60;;;;;;5016255;28;20192;-71
2021/03/31 05:41:00;;;;;;;9.07;7.17;;;4.90;79.40;;;;;;5026161;28;20184;-72
2021/03/31 05:43:26;;;;;;;11.00;7.00;;;5.00;79.30;;;;;;5026548;28;20184;-70
2021/03/31 05:45:55;;;;;;;14.10;6.93;;;5.00;78.90;;;;;;5026708;28;20210;-71
2021/03/31 05:48:23;;;;;;;7.47;6.47;;;5.10;78.80;;;;;;5027487;28;20258;-71
2021/03/31 05:50:48;;;;;;;9.33;6.60;;;5.20;78.30;;;;;;5027279;28;20211;-71
2021/03/31 05:53:14;;;;;;;17.70;6.03;;;5.30;78.50;;;;;;5025960;28;20296;-71
2021/03/31 05:55:40;;;;;;;7.17;5.57;;;5.40;78.20;;;;;;5042043;28;20188;-70
2021/03/31 05:58:07;;;;;;;6.47;5.03;;;5.50;78.10;;;;;;5024756;28;20223;-70
2021/03/31 06:00:33;;;;;;;10.07;4.80;;;5.60;77.60;;;;;;5021142;28;20188;-71
2021/03/31 06:03:03;;;;;;;7.37;5.00;;;5.70;77.80;;;;;;5026466;28;20246;-71
2021/03/31 06:05:32;;;;;;;5.17;4.70;;;5.80;77.40;;;;;;5026221;28;20253;-71
2021/03/31 06:07:58;;;;;;;13.97;5.83;;;5.90;77.10;;;;;;5027198;28;20184;-71
2021/03/31 06:10:26;;;;;;;5.43;4.80;;;6.00;76.50;;;;;;5026980;28;20191;-71
2021/03/31 06:12:54;;;;;;;6.13;5.23;;;6.10;76.20;;;;;;5026850;28;20689;-72
2021/03/31 06:15:45;;;;;;;14.47;5.90;;;6.20;76.10;;;;;;5024568;28;20566;-71
2021/03/31 06:18:16;;;;;;;8.23;5.43;;;6.30;75.50;;;;;;5027225;28;20192;-71
2021/03/31 06:21:05;;;;;;;8.97;6.53;;;6.50;74.80;;;;;;5014706;28;20710;-71
2021/03/31 06:26:28;;;;;;;8.40;6.40;;;6.70;74.80;;;;;;5025481;28;20262;-71
2021/03/31 06:28:58;;;;;;;9.27;6.17;;;6.80;74.20;;;;;;5028667;28;20623;-70
2021/03/31 06:31:32;;;;;;;7.53;5.97;;;6.90;74.00;;;;;;5025146;28;20198;-72
2021/03/31 06:34:07;;;;;;;8.70;6.10;;;7.00;74.00;;;;;;5022525;28;20210;-71
2021/03/31 06:36:41;;;;;;;5.67;4.83;;;7.10;73.80;;;;;;5024607;28;20180;-71
2021/03/31 06:39:34;;;;;;;5.83;5.17;;;7.30;73.40;;;;;;5025494;28;20183;-71
2021/03/31 06:42:09;;;;;;;10.50;5.67;;;7.40;72.90;;;;;;5019742;28;20237;-71
2021/03/31 06:50:12;;;;;;;6.90;5.60;;;7.90;72.30;;;;;;5024656;28;20215;-71
2021/03/31 06:52:57;;;;;;;9.37;5.77;;;8.00;71.50;;;;;;5024385;28;20208;-71
2021/03/31 06:55:24;;;;;;;7.23;6.00;;;8.20;71.70;;;;;;5024634;28;20184;-71
2021/03/31 06:57:58;;;;;;;15.40;6.77;;;8.40;71.90;;;;;;5024189;28;20196;-71
2021/03/31 07:00:36;;;;;;;16.10;7.03;;;8.60;71.50;;;;;;5024285;28;20238;-71
2021/03/31 07:03:11;;;;;;;6.73;6.03;;;8.80;71.30;;;;;;5027659;28;20196;-71
2021/03/31 07:05:39;;;;;;;8.57;6.13;;;9.00;70.80;;;;;;5039082;28;20195;-71
2021/03/31 07:08:11;;;;;;;7.60;6.10;;;9.20;70.80;;;;;;5022960;28;20192;-71
2021/03/31 07:10:47;;;;;;;9.80;7.03;;;9.40;70.00;;;;;;5021838;28;20203;-72
2021/03/31 07:13:26;;;;;;;9.47;7.43;;;9.60;69.60;;;;;;5023457;28;20215;-71
2021/03/31 07:15:53;;;;;;;13.93;7.23;;;9.80;69.10;;;;;;5024474;28;20172;-72
2021/03/31 07:18:21;;;;;;;11.80;8.00;;;9.90;68.30;;;;;;5024728;28;20184;-72
2021/03/31 07:20:47;;;;;;;9.63;7.20;;;10.00;68.90;;;;;;5024259;28;20184;-72
2021/03/31 07:23:13;;;;;;;8.27;7.23;;;10.20;68.30;;;;;;5024622;28;20187;-72
2021/03/31 07:25:39;;;;;;;11.90;7.10;;;10.30;67.70;;;;;;5022119;28;20238;-72
2021/03/31 07:28:06;;;;;;;10.37;6.73;;;10.50;67.50;;;;;;5022485;28;20180;-72
2021/03/31 07:30:33;;;;;;;9.83;7.07;;;10.60;67.10;;;;;;5020891;28;20192;-71
2021/03/31 07:33:16;;;;;;;9.63;7.43;;;10.70;66.80;;;;;;5023721;28;20247;-71
2021/03/31 07:35:42;;;;;;;13.27;7.43;;;10.90;66.50;;;;;;5039359;28;20219;-72
2021/03/31 07:38:13;;;;;;;11.67;7.53;;;11.10;66.30;;;;;;5023988;28;20568;-71
2021/03/31 07:40:40;;;;;;;8.47;7.57;;;11.20;65.30;;;;;;5020947;28;20188;-73
2021/03/31 07:43:13;;;;;;;7.63;6.87;;;11.40;64.60;;;;;;5023801;28;20193;-72
2021/03/31 07:45:46;;;;;;;10.43;6.87;;;11.60;64.30;;;;;;5023095;28;20188;-73
2021/03/31 07:48:13;;;;;;;8.93;7.77;;;11.80;64.20;;;;;;5017785;28;20699;-71
2021/03/31 07:50:38;;;;;;;14.63;7.77;;;11.90;63.40;;;;;;5019165;28;20649;-72
2021/03/31 07:53:06;;;;;;;15.23;7.57;;;12.00;63.20;;;;;;5023344;28;20763;-71
2021/03/31 07:55:38;;;;;;;10.63;7.20;;;12.10;63.30;;;;;;5023991;28;20208;-71
2021/03/31 07:58:30;;;;;;;8.67;7.23;;;12.30;62.90;;;;;;4999286;28;669290;-72
2021/03/31 08:03:37;;;;;;;15.70;7.68;;;12.50;61.70;;;;;;5023952;28;20188;-72
2021/03/31 08:06:09;;;;;;;9.50;7.22;;;12.70;61.60;;;;;;5023002;28;20292;-72
2021/03/31 08:08:55;;;;;;;9.00;7.22;;;12.80;61.20;;;;;;5024976;28;20190;-72
2021/03/31 08:11:39;;;;;;;11.38;7.60;;;13.00;61.20;;;;;;5040238;28;20188;-72
2021/03/31 08:14:06;;;;;;;7.07;6.40;;;13.10;60.90;;;;;;5029913;28;20306;-72
2021/03/31 08:16:44;;;;;;;9.75;7.38;;;13.20;60.00;;;;;;5024458;28;20255;-73
2021/03/31 08:19:16;;;;;;;11.52;7.40;;;13.30;60.10;;;;;;5025340;28;20277;-72
2021/03/31 08:21:44;;;;;;;10.90;7.50;;;13.40;59.40;;;;;;5021888;28;20184;-72
2021/03/31 08:24:18;;;;;;;7.60;6.90;;;13.50;59.50;;;;;;5025312;28;20571;-73
2021/03/31 08:26:56;;;;;;;8.00;6.53;;;13.70;59.10;;;;;;5022787;28;21418;-72
2021/03/31 08:29:21;;;;;;;7.65;6.22;;;13.90;58.70;;;;;;5023301;28;20188;-72
2021/03/31 08:31:55;;;;;;;7.72;5.80;;;14.00;58.80;;;;;;5020029;28;20192;-72
2021/03/31 08:34:23;;;;;;;6.82;5.57;;;14.00;58.10;;;;;;5024398;28;20211;-73
2021/03/31 08:36:50;;;;;;;9.13;6.35;;;13.80;57.80;;;;;;5022682;28;20180;-71
2021/03/31 08:39:16;;;;;;;8.63;5.72;;;13.80;58.10;;;;;;5024766;28;20245;-72
2021/03/31 08:41:47;;;;;;;6.93;6.05;;;14.00;58.60;;;;;;5024108;28;20188;-73
2021/03/31 08:44:52;;;;;;;6.93;6.25;;;14.20;57.70;;;;;;5024941;28;20211;-73
2021/03/31 08:47:20;;;;;;;6.35;5.75;;;14.20;56.50;;;;;;5015714;28;20184;-73
2021/03/31 08:49:48;;;;;;;6.28;5.50;;;14.20;57.70;;;;;;5023706;28;20176;-73
2021/03/31 08:52:17;;;;;;;6.35;5.30;;;14.50;57.60;;;;;;5025144;28;20695;-73
2021/03/31 08:54:51;;;;;;;7.40;6.00;;;14.80;57.20;;;;;;5024376;28;20618;-71
2021/03/31 08:57:27;;;;;;;7.47;5.95;;;15.20;56.10;;;;;;5024438;28;20184;-71
2021/03/31 08:59:58;;;;;;;8.15;5.95;;;15.10;55.00;;;;;;5020618;28;20215;-72
2021/03/31 09:02:32;;;;;;;5.97;5.45;;;15.10;56.00;;;;;;5025334;28;20188;-72
2021/03/31 09:04:59;;;;;;;8.32;5.45;;;15.30;55.40;;;;;;5027791;28;20177;-72
2021/03/31 09:07:25;;;;;;;7.03;5.93;;;15.30;55.50;;;;;;5028364;28;20184;-73
2021/03/31 09:09:51;;;;;;;6.38;5.78;;;15.50;55.50;;;;;;5027659;28;20646;-72
2021/03/31 09:12:22;;;;;;;7.88;5.70;;;15.90;55.60;;;;;;5027451;28;20196;-74
2021/03/31 09:14:52;;;;;;;8.77;6.07;;;16.50;55.10;;;;;;5023509;28;20191;-72
2021/03/31 09:17:21;;;;;;;7.85;5.88;;;17.20;53.70;;;;;;5026691;28;20260;-72
2021/03/31 09:19:50;;;;;;;9.85;6.05;;;17.40;52.30;;;;;;5027703;28;20179;-72
2021/03/31 09:22:18;;;;;;;7.88;6.20;;;17.30;51.90;;;;;;5026693;28;20338;-72
2021/03/31 09:24:44;;;;;;;8.77;6.80;;;17.00;53.00;;;;;;5026964;28;20188;-73
2021/03/31 09:27:13;;;;;;;7.60;5.80;;;17.30;53.20;;;;;;5027413;28;20180;-73
2021/03/31 09:29:44;;;;;;;6.20;5.60;;;17.90;52.50;;;;;;5025702;28;20181;-72
2021/03/31 09:32:16;;;;;;;6.20;5.75;;;18.50;52.00;;;;;;5025372;28;20207;-73
2021/03/31 09:34:42;;;;;;;8.02;6.07;;;19.00;50.80;;;;;;5024978;28;21103;-73
2021/03/31 09:37:14;;;;;;;7.22;6.05;;;19.30;49.80;;;;;;5024852;28;20185;-73
2021/03/31 09:39:44;;;;;;;6.22;5.47;;;19.40;50.30;;;;;;5022325;28;20279;-73
2021/03/31 09:42:23;;;;;;;5.85;5.40;;;19.90;49.90;;;;;;5028099;28;20270;-73
2021/03/31 09:44:51;;;;;;;6.35;5.75;;;20.60;48.80;;;;;;5025718;28;20459;-72
2021/03/31 09:47:20;;;;;;;6.10;5.65;;;21.50;48.10;;;;;;5026920;28;20188;-72
2021/03/31 09:49:48;;;;;;;6.38;5.88;;;22.40;47.00;;;;;;5027554;28;20188;-74
2021/03/31 09:52:14;;;;;;;7.18;6.30;;;22.90;46.20;;;;;;5042838;28;20370;-73
2021/03/31 09:54:47;;;;;;;6.97;6.35;;;23.00;46.00;;;;;;5026729;28;20639;-74
2021/03/31 09:57:14;;;;;;;6.97;6.32;;;23.10;45.20;;;;;;5025994;28;20186;-73
2021/03/31 09:59:41;;;;;;;9.00;6.25;;;22.90;45.80;;;;;;5026771;28;20184;-73
2021/03/31 10:02:08;;;;;;;7.05;6.50;;;22.40;45.10;;;;;;5026180;28;20257;-72
2021/03/31 10:04:38;;;;;;;7.18;6.47;;;22.10;46.70;;;;;;5042130;28;20176;-73
2021/03/31 10:07:19;;;;;;;7.32;6.60;;;21.90;46.00;;;;;;5024488;28;20192;-72
2021/03/31 10:09:55;;;;;;;5.90;5.30;;;21.70;46.90;;;;;;5024794;28;20212;-73
2021/03/31 10:12:27;;;;;;;6.63;6.07;;;21.60;47.20;;;;;;5033851;28;20249;-73
2021/03/31 10:57:16;;;;;;;6.75;6.18;;;26.30;40.70;;;;;;5008031;23;20253;-73
2021/03/31 10:59:41;;;;;;;5.68;5.22;;;26.00;41.50;;;;;;4891681;29;20197;-74
2021/03/31 11:02:08;;;;;;;5.55;5.25;;;25.30;42.20;;;;;;4906785;24;20236;-74
2021/03/31 11:04:34;;;;;;;5.80;5.30;;;24.80;42.00;;;;;;4896978;29;20189;-75
2021/03/31 11:07:02;;;;;;;5.85;5.35;;;25.00;42.60;;;;;;4902326;29;20195;-74
2021/03/31 11:09:28;;;;;;;5.50;5.10;;;25.70;41.80;;;;;;4898444;29;20192;-74
2021/03/31 11:11:57;;;;;;;5.55;5.10;;;26.20;41.80;;;;;;4900822;29;20215;-75
2021/03/31 11:14:23;;;;;;;5.68;5.28;;;26.10;41.50;;;;;;4896562;29;20209;-75
2021/03/31 11:16:59;;;;;;;4.82;4.57;;;26.20;41.30;;;;;;4897959;29;20322;-76
2021/03/31 11:25:33;;;;;;;5.20;4.70;;;26.90;40.90;;;;;;4777510;29;20246;-75
2021/03/31 11:27:59;;;;;;;4.70;4.40;;;27.20;40.90;;;;;;4776062;30;20196;-76
2021/03/31 11:30:25;;;;;;;4.40;4.00;;;27.80;39.80;;;;;;4777676;30;20201;-75
2021/03/31 11:32:51;;;;;;;4.07;3.88;;;28.30;38.80;;;;;;4778849;29;20293;-75
2021/03/31 11:35:16;;;;;;;4.43;4.03;;;28.90;39.50;;;;;;4778970;30;20201;-76
2021/03/31 11:37:42;;;;;;;5.72;4.57;;;29.60;38.40;;;;;;4759715;30;20957;-75
2021/03/31 11:40:08;;;;;;;4.28;4.07;;;30.20;38.10;;;;;;4779804;29;20185;-74
2021/03/31 11:42:34;;;;;;;4.60;4.40;;;30.80;38.90;;;;;;4780310;29;20197;-75
2021/03/31 11:45:00;;;;;;;4.53;4.15;;;31.40;37.50;;;;;;4778764;30;20518;-75
2021/03/31 11:47:26;;;;;;;4.95;4.65;;;31.80;37.80;;;;;;4778925;30;20254;-76
2021/03/31 11:49:51;;;;;;;4.50;4.30;;;31.40;36.80;;;;;;4777821;30;20759;-73
2021/03/31 11:52:18;;;;;;;5.22;4.07;;;30.40;37.00;;;;;;4779776;30;20216;-74
2021/03/31 11:54:43;;;;;;;4.60;4.30;;;29.10;37.60;;;;;;4778699;30;20282;-74
2021/03/31 12:04:56;;;;;;;4.95;4.43;;;27.20;39.40;;;;;;3509803;23;20672;-70
2021/03/31 12:57:05;;;;;;;4.80;4.60;;;29.90;37.80;;;;;;4299882;23;20323;-70
2021/03/31 13:57:57;;;;;;;6.63;3.85;;;31.70;34.90;;;;;;3458317;23;20247;-70
2021/03/31 14:10:22;;;;;;;5.10;4.32;;;31.10;36.00;;;;;;4802283;23;20235;-70
2021/03/31 14:12:50;;;;;;;3.95;3.65;;;31.00;35.60;;;;;;4910499;29;20192;-69
2021/03/31 14:20:35;;;;;;;4.22;4.00;;;30.40;35.30;;;;;;4739447;27;20223;-75
2021/03/31 14:23:03;;;;;;;3.90;3.60;;;30.20;35.60;;;;;;4910686;29;20204;-69
2021/03/31 14:25:29;;;;;;;5.43;4.75;;;30.10;35.50;;;;;;4905606;29;20587;-69
2021/03/31 14:27:55;;;;;;;4.50;4.35;;;29.80;35.40;;;;;;4902297;23;20243;-69
2021/03/31 14:30:26;;;;;;;5.40;4.25;;;29.40;36.00;;;;;;4908098;29;20259;-68
2021/03/31 14:32:53;;;;;;;4.45;4.25;;;29.20;36.30;;;;;;4902401;29;20189;-69
2021/03/31 14:35:19;;;;;;;4.90;4.25;;;28.90;36.80;;;;;;4900084;29;20200;-69
2021/03/31 14:37:45;;;;;;;4.07;3.72;;;28.60;36.80;;;;;;4909683;29;20192;-68
2021/03/31 14:40:11;;;;;;;3.88;3.78;;;28.50;37.00;;;;;;4904589;29;20657;-69
2021/03/31 14:42:37;;;;;;;3.97;3.88;;;28.70;36.10;;;;;;4902179;29;20240;-69
2021/03/31 14:45:03;;;;;;;5.25;4.20;;;28.50;37.50;;;;;;4908300;29;20262;-69
2021/03/31 14:47:33;;;;;;;4.15;3.85;;;28.30;37.10;;;;;;4902080;29;20189;-70
2021/03/31 15:00:28;;;;;;;3.90;3.70;;;25.70;38.70;;;;;;4884193;29;20188;-72
2021/03/31 15:02:54;;;;;;;3.90;3.70;;;25.40;39.30;;;;;;4886341;29;20264;-72
2021/03/31 15:05:19;;;;;;;5.68;4.13;;;25.30;39.40;;;;;;4881748;29;20276;-73
2021/03/31 15:07:45;;;;;;;4.05;3.95;;;25.30;39.10;;;;;;4889689;29;20205;-73
2021/03/31 15:10:12;;;;;;;4.63;3.85;;;25.30;38.80;;;;;;4888698;29;20181;-72
2021/03/31 15:12:38;;;;;;;4.05;3.85;;;25.20;39.50;;;;;;4892668;29;20264;-72
2021/03/31 15:15:06;;;;;;;4.20;3.92;;;25.20;39.40;;;;;;4891934;29;20268;-72
2021/03/31 15:17:31;;;;;;;3.92;3.63;;;25.20;39.00;;;;;;4885060;29;20182;-72
2021/03/31 15:24:57;;;;;;;3.95;3.75;;;25.00;39.70;;;;;;4883476;29;20208;-73
2021/03/31 15:27:22;;;;;;;5.43;4.38;;;24.90;39.90;;;;;;4886642;29;20204;-73
2021/03/31 15:29:49;;;;;;;4.03;3.72;;;24.60;39.20;;;;;;4885687;29;20185;-73
2021/03/31 15:32:15;;;;;;;3.92;3.72;;;24.20;40.00;;;;;;4888718;29;20181;-73
2021/03/31 15:34:41;;;;;;;4.05;3.85;;;23.90;40.10;;;;;;4887290;29;20269;-73
2021/03/31 15:37:07;;;;;;;3.50;3.40;;;23.60;40.60;;;;;;4888484;29;20673;-73
2021/03/31 15:39:33;;;;;;;3.70;3.50;;;23.30;40.50;;;;;;4892000;29;20268;-73
2021/03/31 15:41:59;;;;;;;4.22;4.00;;;22.90;40.90;;;;;;4891319;29;20193;-73
2021/03/31 15:44:30;;;;;;;4.28;4.07;;;22.50;41.40;;;;;;4891842;29;20217;-73
2021/03/31 15:49:31;;;;;;;5.22;4.75;;;21.40;42.80;;;;;;4889968;29;20197;-73
2021/03/31 15:51:57;;;;;;;4.20;4.00;;;21.10;43.30;;;;;;4891889;29;20215;-72
2021/03/31 15:54:23;;;;;;;4.00;3.80;;;20.70;43.50;;;;;;4891049;29;20271;-72
2021/03/31 15:56:49;;;;;;;4.05;3.75;;;20.40;43.60;;;;;;4884082;29;20237;-72
2021/03/31 15:59:14;;;;;;;5.50;3.78;;;20.20;43.90;;;;;;4889550;29;20189;-72
2021/03/31 16:01:40;;;;;;;4.10;3.75;;;20.10;44.00;;;;;;4890328;29;20804;-72
2021/03/31 16:04:08;;;;;;;5.65;3.78;;;19.90;44.10;;;;;;4891151;29;20276;-72
2021/03/31 16:09:18;;;;;;;4.60;4.35;;;19.60;44.30;;;;;;4890897;29;20670;-72
2021/03/31 16:11:44;;;;;;;4.35;3.92;;;19.20;44.80;;;;;;4879293;29;20227;-73
2021/03/31 16:14:10;;;;;;;8.68;3.85;;;19.00;45.10;;;;;;4887592;29;20224;-73
2021/03/31 16:16:35;;;;;;;11.80;4.60;;;18.60;45.50;;;;;;4878753;29;20224;-72
2021/03/31 16:19:01;;;;;;;7.10;3.97;;;18.30;46.00;;;;;;4856355;29;20202;-72
2021/03/31 16:21:29;;;;;;;4.53;4.15;;;18.10;46.40;;;;;;4849822;29;20200;-73
2021/03/31 16:23:55;;;;;;;4.32;3.92;;;17.90;46.60;;;;;;4857275;29;20304;-73
2021/03/31 16:26:21;;;;;;;4.95;4.22;;;17.80;46.60;;;;;;4859697;29;20188;-72
2021/03/31 16:31:32;;;;;;;4.75;3.53;;;17.40;47.70;;;;;;4878441;29;20193;-72